Time;durP1;ratioP1;P1;durP2;ratioP2;P2;SDS_P1;SDS_P2;PMS_P1;PMS_P2;Temp;Humidity;BMP_temperature;BMP_pressure;BME280_temperature;BME280_humidity;BME280_pressure;Samples;Min_cycle;Max_cycle;Signal;HPM_P1;HPM_P2
2021/07/15 00:00:00;;;;;;;1999.90;999.90;;;17.90;99.90;;;;;;5095709;28;20401;-81
2021/07/15 00:02:26;;;;;;;1999.90;999.90;;;17.90;99.90;;;;;;5094264;28;20167;-81
2021/07/15 00:04:55;;;;;;;1999.90;999.90;;;17.90;99.90;;;;;;5095602;28;20228;-81
2021/07/15 00:07:21;;;;;;;1999.90;999.90;;;17.90;99.90;;;;;;5095247;28;20445;-81
2021/07/15 00:09:46;;;;;;;1999.90;999.90;;;17.90;99.90;;;;;;5095621;28;20394;-81
2021/07/15 00:12:15;;;;;;;1999.90;999.90;;;17.90;99.90;;;;;;5096246;28;20670;-81
2021/07/15 00:14:41;;;;;;;1999.90;999.90;;;17.90;99.90;;;;;;5095928;28;20167;-81
2021/07/15 00:17:07;;;;;;;1999.90;999.90;;;17.90;99.90;;;;;;5077515;28;20785;-81
2021/07/15 00:19:33;;;;;;;1999.90;999.90;;;17.90;99.90;;;;;;5094088;28;20402;-81
2021/07/15 00:22:00;;;;;;;1999.90;999.90;;;17.90;99.90;;;;;;5095659;28;20394;-81
2021/07/15 00:24:26;;;;;;;1999.90;999.90;;;17.90;99.90;;;;;;5077085;28;20401;-81
2021/07/15 00:26:53;;;;;;;1999.90;999.90;;;17.90;99.90;;;;;;5077360;28;20424;-81
2021/07/15 00:29:21;;;;;;;1999.90;999.90;;;17.80;99.90;;;;;;5095117;28;20393;-81
2021/07/15 00:31:46;;;;;;;1999.90;999.90;;;17.80;99.90;;;;;;5095651;28;20458;-81
2021/07/15 00:34:12;;;;;;;1999.90;999.90;;;17.80;99.90;;;;;;5095043;28;20401;-81
2021/07/15 00:36:38;;;;;;;1999.90;999.90;;;17.80;99.90;;;;;;5101365;28;20507;-81
2021/07/15 00:39:05;;;;;;;1999.90;999.90;;;17.80;99.90;;;;;;5102495;28;20484;-81
2021/07/15 00:41:31;;;;;;;1999.90;999.90;;;17.80;99.90;;;;;;5102576;28;20160;-81
2021/07/15 00:43:57;;;;;;;1999.90;999.90;;;17.80;99.90;;;;;;5083933;28;20409;-81
2021/07/15 00:46:23;;;;;;;1999.90;999.90;;;17.80;99.90;;;;;;5100568;28;20217;-81
2021/07/15 00:48:48;;;;;;;1999.90;999.90;;;17.80;99.90;;;;;;5100339;28;20198;-81
2021/07/15 00:51:15;;;;;;;1999.90;999.90;;;17.80;99.90;;;;;;5100601;28;20405;-81
2021/07/15 00:53:40;;;;;;;1999.90;999.90;;;17.80;99.90;;;;;;5101958;28;20210;-81
2021/07/15 00:56:08;;;;;;;1999.90;999.90;;;17.70;99.90;;;;;;5102009;28;20417;-81
2021/07/15 00:58:34;;;;;;;1999.90;999.90;;;17.70;99.90;;;;;;5102017;28;20638;-81
2021/07/15 01:01:00;;;;;;;1999.90;999.90;;;17.70;99.90;;;;;;5083450;28;20474;-81
2021/07/15 01:03:26;;;;;;;1999.90;999.90;;;17.70;99.90;;;;;;5101365;28;20436;-81
2021/07/15 01:05:57;;;;;;;1999.90;999.90;;;17.70;99.90;;;;;;5101181;28;20520;-81
2021/07/15 01:08:24;;;;;;;1999.90;999.90;;;17.60;99.90;;;;;;5101594;28;20498;-81
2021/07/15 01:11:10;;;;;;;1999.90;999.90;;;17.60;99.90;;;;;;5101706;28;20523;-81
2021/07/15 01:13:45;;;;;;;1999.90;999.90;;;17.60;99.90;;;;;;5101808;28;20399;-81
2021/07/15 01:16:36;;;;;;;1999.90;999.90;;;17.60;99.90;;;;;;5101604;28;20412;-81
2021/07/15 01:19:31;;;;;;;1999.90;999.90;;;17.60;99.90;;;;;;5101909;28;20466;-81
2021/07/15 01:22:17;;;;;;;1999.90;999.90;;;17.50;99.90;;;;;;5101927;28;20420;-81
2021/07/15 01:25:15;;;;;;;1999.90;999.90;;;17.50;99.90;;;;;;5101620;28;20396;-81
2021/07/15 01:27:59;;;;;;;1999.90;999.90;;;17.60;99.90;;;;;;5080149;28;20947;-81
2021/07/15 01:30:51;;;;;;;1999.90;999.90;;;17.50;99.90;;;;;;5100005;28;20419;-81
2021/07/15 01:33:22;;;;;;;1999.90;999.90;;;17.50;99.90;;;;;;5101741;28;20409;-81
2021/07/15 01:35:59;;;;;;;1999.90;999.90;;;17.50;99.90;;;;;;5101394;28;20442;-81
2021/07/15 01:38:49;;;;;;;1999.90;999.90;;;17.50;99.90;;;;;;5101763;28;20926;-81
2021/07/15 01:41:29;;;;;;;1999.90;999.90;;;17.50;99.90;;;;;;5083287;28;20417;-81
2021/07/15 01:44:11;;;;;;;1999.90;999.90;;;17.40;99.90;;;;;;5101578;28;20417;-81
2021/07/15 01:46:39;;;;;;;1999.90;999.90;;;17.40;99.90;;;;;;5101013;28;20435;-81
2021/07/15 01:49:06;;;;;;;1999.90;999.90;;;17.40;99.90;;;;;;5097980;28;20452;-81
2021/07/15 01:51:33;;;;;;;1999.90;999.90;;;17.40;99.90;;;;;;5079789;28;20780;-81
2021/07/15 01:53:59;;;;;;;1999.90;999.90;;;17.40;99.90;;;;;;5079987;28;20500;-81
2021/07/15 01:56:26;;;;;;;1999.90;999.90;;;17.40;99.90;;;;;;5097986;28;20951;-81
2021/07/15 01:58:54;;;;;;;1999.90;999.90;;;17.40;99.90;;;;;;5098372;28;20908;-81
2021/07/15 02:01:23;;;;;;;1999.90;999.90;;;17.40;99.90;;;;;;5080093;28;20900;-81
2021/07/15 02:03:51;;;;;;;1999.90;999.90;;;17.40;99.90;;;;;;5080066;28;20566;-81
2021/07/15 02:06:19;;;;;;;1999.90;999.90;;;17.30;99.90;;;;;;5098073;28;20769;-81
2021/07/15 02:08:46;;;;;;;1999.90;999.90;;;17.30;99.90;;;;;;5097719;28;20820;-81
2021/07/15 02:11:14;;;;;;;1999.90;999.90;;;17.30;99.90;;;;;;5098096;28;20412;-81
2021/07/15 02:13:42;;;;;;;1999.90;999.90;;;17.30;99.90;;;;;;5098488;28;20509;-81
2021/07/15 02:16:09;;;;;;;1999.90;999.90;;;17.30;99.90;;;;;;5098066;28;20424;-81
2021/07/15 02:18:36;;;;;;;1999.90;999.90;;;17.30;99.90;;;;;;5097712;28;20416;-81
2021/07/15 02:21:03;;;;;;;1999.90;999.90;;;17.30;99.90;;;;;;5097784;28;20405;-81
2021/07/15 02:23:29;;;;;;;1999.90;999.90;;;17.30;99.90;;;;;;5079514;28;20786;-81
2021/07/15 02:25:56;;;;;;;1999.90;999.90;;;17.30;99.90;;;;;;5079202;28;20803;-81
2021/07/15 02:28:23;;;;;;;1999.90;999.90;;;17.30;99.90;;;;;;5097395;28;20451;-81
2021/07/15 02:30:53;;;;;;;1999.90;999.90;;;17.30;99.90;;;;;;5097511;28;20397;-81
2021/07/15 02:33:26;;;;;;;1999.90;999.90;;;17.30;99.90;;;;;;5097430;28;20757;-81
2021/07/15 02:35:54;;;;;;;1999.90;999.90;;;17.30;99.90;;;;;;5097204;28;20440;-81
2021/07/15 02:38:26;;;;;;;1999.90;999.90;;;17.20;99.90;;;;;;5079282;28;20474;-81
2021/07/15 02:40:52;;;;;;;1999.90;999.90;;;17.20;99.90;;;;;;5097718;28;20796;-81
2021/07/15 02:43:18;;;;;;;1999.90;999.90;;;17.20;99.90;;;;;;5097179;28;20493;-81
2021/07/15 02:45:44;;;;;;;1999.90;999.90;;;17.20;99.90;;;;;;5078746;28;20472;-81
2021/07/15 02:48:12;;;;;;;1999.90;999.90;;;17.20;99.90;;;;;;5097498;28;20534;-81
2021/07/15 02:50:38;;;;;;;1999.90;999.90;;;17.20;99.90;;;;;;5095976;28;20175;-81
2021/07/15 02:53:04;;;;;;;1999.90;999.90;;;17.20;99.90;;;;;;5078933;28;20421;-82
2021/07/15 02:55:30;;;;;;;1999.90;999.90;;;17.10;99.90;;;;;;5096502;28;20433;-81
2021/07/15 02:58:12;;;;;;;1999.90;999.90;;;17.10;99.90;;;;;;5078426;28;20425;-81
2021/07/15 03:00:45;;;;;;;1999.90;999.90;;;17.20;99.90;;;;;;5096835;28;20890;-81
2021/07/15 03:05:45;;;;;;;1999.90;999.90;;;17.20;99.90;;;;;;5166606;22;20584;-81
2021/07/15 03:08:19;;;;;;;1999.90;999.90;;;17.20;99.90;;;;;;5097888;28;20436;-82
2021/07/15 03:10:47;;;;;;;1999.90;999.90;;;17.20;99.90;;;;;;5098509;28;20473;-82
2021/07/15 03:13:14;;;;;;;1999.90;999.90;;;17.20;99.90;;;;;;5081623;28;20466;-82
2021/07/15 03:15:43;;;;;;;1999.90;999.90;;;17.20;99.90;;;;;;5099332;28;20460;-82
2021/07/15 03:18:09;;;;;;;1999.90;999.90;;;17.20;99.90;;;;;;5098580;28;20746;-82
2021/07/15 03:20:41;;;;;;;1999.90;999.90;;;17.20;99.90;;;;;;5099137;28;20466;-82
2021/07/15 03:23:11;;;;;;;1999.90;999.90;;;17.20;99.90;;;;;;5081790;28;20409;-82
2021/07/15 03:25:38;;;;;;;1999.90;999.90;;;17.20;99.90;;;;;;5100965;28;20450;-82
2021/07/15 03:28:09;;;;;;;1999.90;999.90;;;17.20;99.90;;;;;;5099654;28;20451;-82
2021/07/15 03:30:37;;;;;;;1999.90;999.90;;;17.20;99.90;;;;;;5099952;28;20388;-82
2021/07/15 03:33:03;;;;;;;1999.90;999.90;;;17.20;99.90;;;;;;5099428;28;20408;-82
2021/07/15 03:35:29;;;;;;;1999.90;999.90;;;17.20;99.90;;;;;;5080716;28;20476;-82
2021/07/15 03:37:57;;;;;;;1999.90;999.90;;;17.20;99.90;;;;;;5099120;28;20495;-82
2021/07/15 03:40:27;;;;;;;1999.90;999.90;;;17.20;99.90;;;;;;5079418;28;20494;-82
2021/07/15 03:42:54;;;;;;;1999.90;999.90;;;17.20;99.90;;;;;;5079367;28;20499;-82
2021/07/15 03:45:22;;;;;;;1999.90;999.90;;;17.20;99.90;;;;;;5097963;28;20734;-82
2021/07/15 03:47:51;;;;;;;1999.90;999.90;;;17.20;99.90;;;;;;5097629;28;20447;-82
2021/07/15 03:50:24;;;;;;;1999.90;999.90;;;17.20;99.90;;;;;;5097381;28;20393;-82
2021/07/15 03:52:56;;;;;;;1999.90;999.90;;;17.20;99.90;;;;;;5079175;28;20417;-82
2021/07/15 03:55:25;;;;;;;1999.90;999.90;;;17.20;99.90;;;;;;5097144;28;20400;-82
2021/07/15 03:57:52;;;;;;;1999.90;999.90;;;17.20;99.90;;;;;;5097192;28;20465;-82
2021/07/15 04:00:22;;;;;;;1999.90;999.90;;;17.20;99.90;;;;;;5097681;28;20443;-82
2021/07/15 04:02:50;;;;;;;1999.90;999.90;;;17.10;99.90;;;;;;5081444;28;20417;-82
2021/07/15 04:05:22;;;;;;;1999.90;999.90;;;17.20;99.90;;;;;;5097038;28;20493;-82
2021/07/15 04:07:50;;;;;;;1999.90;999.90;;;17.10;99.90;;;;;;5099061;28;20433;-82
2021/07/15 04:10:17;;;;;;;1999.90;999.90;;;17.10;99.90;;;;;;5097657;28;20492;-82
2021/07/15 04:12:46;;;;;;;1999.90;999.90;;;17.10;99.90;;;;;;5080850;28;20421;-82
2021/07/15 04:15:19;;;;;;;1999.90;999.90;;;17.20;99.90;;;;;;5098427;28;20504;-82
2021/07/15 04:17:50;;;;;;;1999.90;999.90;;;17.20;99.90;;;;;;5096356;28;20409;-82
2021/07/15 04:20:18;;;;;;;1999.90;999.90;;;17.30;99.90;;;;;;5098531;28;20402;-82
2021/07/15 04:22:46;;;;;;;1999.90;999.90;;;17.20;99.90;;;;;;5080059;28;20439;-82
2021/07/15 04:25:15;;;;;;;1999.90;999.90;;;17.30;99.90;;;;;;5096941;28;20408;-82
2021/07/15 04:27:43;;;;;;;1999.90;999.90;;;17.30;99.90;;;;;;5078807;28;20811;-82
2021/07/15 04:30:11;;;;;;;1999.90;999.90;;;17.30;99.90;;;;;;5096033;28;20908;-81
2021/07/15 04:32:40;;;;;;;1999.90;999.90;;;17.30;99.90;;;;;;5097026;28;20397;-82
2021/07/15 04:35:12;;;;;;;1999.90;999.90;;;17.30;99.90;;;;;;5095315;28;20405;-82
2021/07/15 04:37:40;;;;;;;1999.90;999.90;;;17.30;99.90;;;;;;5096376;28;20424;-82
2021/07/15 04:40:08;;;;;;;1999.90;999.90;;;17.40;99.90;;;;;;5078873;28;20457;-82
2021/07/15 04:42:36;;;;;;;1999.90;999.90;;;17.40;99.90;;;;;;5096615;28;20469;-82
2021/07/15 04:45:03;;;;;;;1999.90;999.90;;;17.40;99.90;;;;;;5078585;28;20413;-82
2021/07/15 04:47:31;;;;;;;1999.90;999.90;;;17.50;99.90;;;;;;5079039;28;20455;-82
2021/07/15 04:49:57;;;;;;;1999.90;999.90;;;17.50;99.90;;;;;;5096568;28;20397;-82
2021/07/15 04:52:24;;;;;;;1999.90;999.90;;;17.50;99.90;;;;;;5096379;28;20459;-82
2021/07/15 04:54:51;;;;;;;1999.90;999.90;;;17.50;99.90;;;;;;5096797;28;20396;-82
2021/07/15 04:57:17;;;;;;;1999.90;999.90;;;17.60;99.90;;;;;;5096837;28;20784;-82
2021/07/15 04:59:44;;;;;;;1999.90;999.90;;;17.60;99.90;;;;;;5077602;28;20457;-82
2021/07/15 05:02:10;;;;;;;1999.90;999.90;;;17.70;99.90;;;;;;5095150;28;20455;-82
2021/07/15 05:04:37;;;;;;;1999.90;999.90;;;17.70;99.90;;;;;;5097907;28;20456;-82
2021/07/15 05:07:04;;;;;;;1999.90;999.90;;;17.70;99.90;;;;;;5078732;28;20516;-82
2021/07/15 05:09:30;;;;;;;1999.90;999.90;;;17.70;99.90;;;;;;5096557;28;20398;-82
2021/07/15 05:11:56;;;;;;;1999.90;999.90;;;17.70;99.90;;;;;;5096560;28;20398;-82
2021/07/15 05:14:22;;;;;;;1999.90;999.90;;;17.80;99.90;;;;;;5095890;28;20895;-82
2021/07/15 05:16:48;;;;;;;1999.90;999.90;;;17.80;99.90;;;;;;5095887;28;20205;-82
2021/07/15 05:19:14;;;;;;;1999.90;999.90;;;17.70;99.90;;;;;;5096511;28;20405;-82
2021/07/15 05:21:39;;;;;;;1999.90;999.90;;;17.70;99.90;;;;;;5096766;28;20178;-82
2021/07/15 05:24:05;;;;;;;1999.90;999.90;;;17.80;99.90;;;;;;5100756;28;20164;-81
2021/07/15 05:26:31;;;;;;;1999.90;999.90;;;17.90;99.90;;;;;;5101216;28;20187;-81
2021/07/15 05:29:00;;;;;;;1999.90;999.90;;;18.00;99.90;;;;;;5099432;28;20183;-81
2021/07/15 05:31:26;;;;;;;1999.90;999.90;;;18.00;99.90;;;;;;5082046;28;20455;-81
2021/07/15 05:33:52;;;;;;;1999.90;999.90;;;18.20;99.90;;;;;;5098723;28;20405;-81
2021/07/15 05:36:18;;;;;;;1999.90;999.90;;;18.30;99.90;;;;;;5099598;28;20422;-81
2021/07/15 05:38:43;;;;;;;1999.90;999.90;;;18.30;99.90;;;;;;5099163;28;20405;-81
2021/07/15 05:41:10;;;;;;;1999.90;999.90;;;18.40;99.90;;;;;;5098950;28;20166;-81
2021/07/15 05:43:39;;;;;;;1999.90;999.90;;;18.50;99.90;;;;;;5079639;28;20172;-81
2021/07/15 05:46:05;;;;;;;1999.90;999.90;;;18.60;99.90;;;;;;5082351;28;20421;-82
2021/07/15 05:48:30;;;;;;;1999.90;999.90;;;18.60;99.90;;;;;;5103207;28;20501;-82
2021/07/15 05:50:57;;;;;;;1999.90;999.90;;;18.50;99.90;;;;;;5103816;28;20160;-83
2021/07/15 05:53:23;;;;;;;1999.90;999.90;;;18.50;99.90;;;;;;5106550;28;20196;-83
2021/07/15 05:55:48;;;;;;;1999.90;999.90;;;18.50;99.90;;;;;;5105630;28;20813;-83
2021/07/15 05:58:14;;;;;;;1999.90;999.90;;;18.60;99.90;;;;;;5105120;28;20538;-83
2021/07/15 06:00:40;;;;;;;1999.90;999.90;;;18.60;99.90;;;;;;5106419;28;20186;-83
2021/07/15 06:03:05;;;;;;;1999.90;999.90;;;18.60;99.90;;;;;;5106583;28;20167;-83
2021/07/15 06:05:32;;;;;;;1999.90;999.90;;;18.70;99.90;;;;;;5105454;28;20262;-83
2021/07/15 06:07:59;;;;;;;1999.90;999.90;;;18.70;99.90;;;;;;5103490;28;20179;-82
2021/07/15 06:10:25;;;;;;;1999.90;999.90;;;18.80;99.90;;;;;;5103035;28;20394;-82
2021/07/15 06:12:50;;;;;;;1999.90;999.90;;;18.90;99.90;;;;;;5102779;28;20401;-83
2021/07/15 06:15:16;;;;;;;1999.90;999.90;;;19.00;99.90;;;;;;5085450;28;20412;-83
2021/07/15 06:17:43;;;;;;;1999.90;999.90;;;19.10;99.90;;;;;;5102687;28;20232;-82
2021/07/15 06:20:12;;;;;;;1999.90;999.90;;;19.00;99.90;;;;;;5102596;28;20496;-82
2021/07/15 06:22:39;;;;;;;1999.90;999.90;;;18.90;99.90;;;;;;5102604;28;20900;-82
2021/07/15 06:25:07;;;;;;;1999.90;999.90;;;19.00;99.90;;;;;;5102974;28;20946;-83
2021/07/15 06:27:32;;;;;;;1999.90;999.90;;;19.10;99.90;;;;;;5083763;28;20507;-82
2021/07/15 06:29:58;;;;;;;1999.90;999.90;;;19.10;99.90;;;;;;5099344;28;20398;-81
2021/07/15 06:32:23;;;;;;;1999.90;999.90;;;19.10;99.90;;;;;;5098177;28;20210;-81
2021/07/15 06:34:49;;;;;;;1999.90;999.90;;;19.10;99.90;;;;;;5097504;28;20163;-81
2021/07/15 06:37:15;;;;;;;1999.90;999.90;;;19.10;99.90;;;;;;5098275;28;20194;-81
2021/07/15 06:39:42;;;;;;;1999.90;999.90;;;19.20;99.90;;;;;;5079984;28;20174;-81
2021/07/15 06:42:08;;;;;;;1999.90;999.90;;;19.20;99.90;;;;;;5098063;28;20405;-81
2021/07/15 06:44:33;;;;;;;1999.90;999.90;;;19.20;99.90;;;;;;5096473;28;20402;-81
2021/07/15 06:46:59;;;;;;;1999.90;999.90;;;19.30;99.90;;;;;;5096124;28;20236;-81
2021/07/15 06:49:26;;;;;;;1999.90;999.90;;;19.40;99.90;;;;;;5097814;28;20662;-81
2021/07/15 06:51:54;;;;;;;1999.90;999.90;;;19.40;99.90;;;;;;5097390;28;20157;-81
2021/07/15 06:54:20;;;;;;;1999.90;999.90;;;19.40;99.90;;;;;;5097048;28;20466;-81
2021/07/15 06:56:45;;;;;;;1999.90;999.90;;;19.50;99.90;;;;;;5097265;28;20428;-81
2021/07/15 06:59:11;;;;;;;1999.90;999.90;;;19.50;99.90;;;;;;5096097;28;20417;-81
2021/07/15 07:01:37;;;;;;;1999.90;999.90;;;19.40;99.90;;;;;;5097396;28;20171;-81
2021/07/15 07:04:02;;;;;;;1999.90;999.90;;;19.40;99.90;;;;;;5097195;28;20252;-81
2021/07/15 07:06:28;;;;;;;1999.90;999.90;;;19.30;99.90;;;;;;5097070;28;20622;-80
2021/07/15 07:08:54;;;;;;;1999.90;999.90;;;19.50;99.90;;;;;;5097078;28;20248;-80
2021/07/15 07:11:19;;;;;;;1999.90;999.90;;;19.70;99.90;;;;;;5094588;28;20252;-80
2021/07/15 07:13:45;;;;;;;1999.90;999.90;;;19.90;99.90;;;;;;5096443;28;20176;-81
2021/07/15 07:16:10;;;;;;;1999.90;999.90;;;20.00;99.90;;;;;;5096786;28;20179;-80
2021/07/15 07:18:36;;;;;;;1999.90;999.90;;;20.00;99.90;;;;;;5097025;28;20572;-81
2021/07/15 07:21:02;;;;;;;1999.90;999.90;;;19.90;99.90;;;;;;5095745;28;20203;-81
2021/07/15 07:23:28;;;;;;;1999.90;999.90;;;19.80;99.90;;;;;;5096773;28;20526;-81
2021/07/15 07:25:53;;;;;;;1999.90;999.90;;;19.80;99.90;;;;;;5096302;28;20188;-81
2021/07/15 07:28:19;;;;;;;1999.90;999.90;;;19.90;99.90;;;;;;5096380;28;20195;-80
2021/07/15 07:30:44;;;;;;;1999.90;999.90;;;19.90;99.90;;;;;;5096502;28;20619;-80
2021/07/15 07:33:10;;;;;;;1999.90;999.90;;;19.80;99.90;;;;;;5096337;28;20163;-81
2021/07/15 07:35:36;;;;;;;1999.90;999.90;;;19.70;99.90;;;;;;5095820;28;20187;-80
2021/07/15 07:38:03;;;;;;;1999.90;999.90;;;19.70;99.90;;;;;;5095981;28;20174;-80
2021/07/15 07:40:28;;;;;;;1999.90;999.90;;;19.70;99.90;;;;;;5095615;28;20227;-80
2021/07/15 07:42:54;;;;;;;1999.90;999.90;;;19.90;99.90;;;;;;5096047;28;20442;-80
2021/07/15 07:45:20;;;;;;;1999.90;999.90;;;20.00;99.90;;;;;;5095859;28;20220;-80
2021/07/15 07:47:46;;;;;;;1999.90;999.90;;;20.00;99.90;;;;;;5096088;28;20189;-80
2021/07/15 07:50:14;;;;;;;1999.90;999.90;;;20.10;99.90;;;;;;5094728;28;20487;-80
2021/07/15 07:52:40;;;;;;;1999.90;999.90;;;20.20;99.90;;;;;;5095783;28;20172;-80
2021/07/15 07:55:07;;;;;;;1999.90;999.90;;;20.40;99.90;;;;;;5095413;28;20467;-80
2021/07/15 07:57:33;;;;;;;1999.90;999.90;;;20.50;99.90;;;;;;5095152;28;20431;-80
2021/07/15 08:00:00;;;;;;;1999.90;999.90;;;20.50;99.90;;;;;;5095121;28;20827;-81
2021/07/15 08:02:26;;;;;;;1999.90;999.90;;;20.70;99.90;;;;;;5095355;28;20452;-80
2021/07/15 08:04:52;;;;;;;1999.90;999.90;;;20.60;99.90;;;;;;5095140;28;20429;-80
2021/07/15 08:07:18;;;;;;;1999.90;999.90;;;20.50;99.90;;;;;;5094974;28;20199;-80
2021/07/15 08:09:45;;;;;;;1999.90;999.90;;;20.50;99.90;;;;;;5094779;28;20907;-80
2021/07/15 08:12:15;;;;;;;1999.90;999.90;;;20.70;99.90;;;;;;5094935;28;20897;-80
2021/07/15 08:14:41;;;;;;;1999.90;999.90;;;20.90;99.90;;;;;;5095236;28;20407;-80
2021/07/15 08:17:07;;;;;;;1999.90;999.90;;;21.00;99.90;;;;;;5094925;28;20800;-80
2021/07/15 08:19:33;;;;;;;1999.90;999.90;;;21.10;99.90;;;;;;5095027;28;20770;-80
2021/07/15 08:21:58;;;;;;;1999.90;999.90;;;21.20;99.90;;;;;;5094884;28;20507;-80
2021/07/15 08:24:24;;;;;;;1999.90;999.90;;;21.20;99.90;;;;;;5094245;28;20193;-81
2021/07/15 08:26:50;;;;;;;1999.90;999.90;;;21.30;99.90;;;;;;5094184;28;20186;-80
2021/07/15 08:29:16;;;;;;;1999.90;999.90;;;21.30;99.90;;;;;;5094244;28;20193;-80
2021/07/15 08:31:42;;;;;;;1999.90;999.90;;;21.30;99.90;;;;;;5094527;28;20811;-80
2021/07/15 08:34:09;;;;;;;1999.90;999.90;;;21.30;99.90;;;;;;5094294;28;20394;-81
2021/07/15 08:36:34;;;;;;;1999.90;999.90;;;21.30;99.90;;;;;;5094189;28;20248;-80
2021/07/15 08:39:00;;;;;;;1999.90;999.90;;;21.10;99.90;;;;;;5094111;28;20892;-81
2021/07/15 08:41:27;;;;;;;1999.90;999.90;;;21.20;99.90;;;;;;5094203;28;20197;-81
2021/07/15 08:43:53;;;;;;;1999.90;999.90;;;21.00;99.90;;;;;;5094144;28;20405;-80
2021/07/15 08:46:21;;;;;;;1999.90;999.90;;;21.00;99.90;;;;;;5094541;28;20452;-80
2021/07/15 08:48:47;;;;;;;1999.90;999.90;;;21.10;99.90;;;;;;5094731;28;20519;-80
2021/07/15 08:51:21;;;;;;;1999.90;999.90;;;21.30;99.90;;;;;;5095046;28;20410;-81
2021/07/15 08:53:48;;;;;;;1999.90;999.90;;;21.40;99.90;;;;;;5094440;28;20392;-81
2021/07/15 08:58:59;;;;;;;1999.90;999.90;;;21.60;99.90;;;;;;5098104;28;20404;-81
2021/07/15 09:01:27;;;;;;;1999.90;999.90;;;21.60;99.90;;;;;;5098036;28;20479;-82
2021/07/15 09:03:54;;;;;;;1999.90;999.90;;;21.50;99.90;;;;;;5186209;22;20512;-81
2021/07/15 09:06:19;;;;;;;1999.90;999.90;;;21.70;99.90;;;;;;5101190;28;20436;-82
2021/07/15 09:08:47;;;;;;;1999.90;999.90;;;21.80;99.90;;;;;;5099954;28;20449;-82
2021/07/15 09:11:13;;;;;;;1999.90;999.90;;;21.90;99.90;;;;;;5082660;28;20167;-82
2021/07/15 09:13:38;;;;;;;1999.90;999.90;;;21.90;99.90;;;;;;5100979;28;20458;-82
2021/07/15 09:16:14;;;;;;;1999.90;999.90;;;22.10;99.90;;;;;;5099329;28;20244;-81
2021/07/15 09:19:04;;;;;;;1999.90;999.90;;;21.90;99.90;;;;;;5100800;28;20147;-80
2021/07/15 09:21:32;;;;;;;1999.90;999.90;;;22.00;99.90;;;;;;5100436;28;20377;-81
2021/07/15 09:23:59;;;;;;;1999.90;999.90;;;21.90;99.90;;;;;;5081816;28;20404;-81
2021/07/15 09:26:29;;;;;;;1999.90;999.90;;;21.90;99.90;;;;;;5100547;28;20416;-81
2021/07/15 09:28:55;;;;;;;1999.90;999.90;;;21.90;99.90;;;;;;5082448;28;20844;-81
2021/07/15 09:31:23;;;;;;;1999.90;999.90;;;21.90;99.90;;;;;;5100661;28;20485;-81
2021/07/15 09:33:49;;;;;;;1999.90;999.90;;;21.80;99.90;;;;;;5099998;28;20393;-81
2021/07/15 09:36:21;;;;;;;1999.90;999.90;;;21.90;99.90;;;;;;5099925;28;20413;-80
2021/07/15 09:38:47;;;;;;;1999.90;999.90;;;21.80;99.90;;;;;;5098169;28;20492;-81
2021/07/15 09:41:17;;;;;;;1999.90;999.90;;;21.90;99.90;;;;;;5099705;28;20788;-81
2021/07/15 09:43:44;;;;;;;1999.90;999.90;;;22.10;99.90;;;;;;5099654;28;20423;-81
2021/07/15 09:46:13;;;;;;;1999.90;999.90;;;22.30;99.90;;;;;;5099507;28;20425;-81
2021/07/15 09:48:44;;;;;;;1999.90;999.90;;;22.50;99.90;;;;;;5097999;28;20448;-80
2021/07/15 09:51:13;;;;;;;1999.90;999.90;;;22.70;99.90;;;;;;5099631;28;20436;-81
2021/07/15 09:53:42;;;;;;;1999.90;999.90;;;22.70;99.90;;;;;;5099460;28;20484;-81
2021/07/15 09:56:16;;;;;;;1999.90;999.90;;;22.70;99.90;;;;;;5098846;28;20944;-81
2021/07/15 09:58:47;;;;;;;1999.90;999.90;;;22.70;99.90;;;;;;5097136;28;20427;-81
2021/07/15 10:01:21;;;;;;;1999.90;999.90;;;22.90;99.90;;;;;;5097720;28;20450;-81
2021/07/15 10:03:50;;;;;;;1999.90;999.90;;;22.90;99.90;;;;;;5080780;28;20437;-80
2021/07/15 10:06:18;;;;;;;1999.90;999.90;;;22.80;99.90;;;;;;5080771;28;20434;-81
2021/07/15 10:08:46;;;;;;;1999.90;999.90;;;22.80;99.90;;;;;;5079921;28;20441;-81
2021/07/15 10:11:16;;;;;;;1999.90;999.90;;;22.40;99.90;;;;;;5099355;28;21038;-81
2021/07/15 10:13:44;;;;;;;1999.90;999.90;;;22.10;99.90;;;;;;5099613;28;20370;-81
2021/07/15 10:16:10;;;;;;;1999.90;999.90;;;21.90;99.90;;;;;;5098405;28;20425;-81
2021/07/15 10:18:39;;;;;;;1999.90;999.90;;;21.90;99.90;;;;;;5098949;28;20518;-81
2021/07/15 10:21:09;;;;;;;1999.90;999.90;;;22.00;99.90;;;;;;5097293;28;20421;-81
2021/07/15 10:23:37;;;;;;;1999.90;999.90;;;22.10;99.90;;;;;;5099141;28;20389;-81
2021/07/15 10:26:04;;;;;;;1999.90;999.90;;;22.10;99.90;;;;;;5098667;28;20762;-81
2021/07/15 10:28:30;;;;;;;1999.90;999.90;;;22.10;99.90;;;;;;5098758;28;20452;-81
2021/07/15 10:31:06;;;;;;;1999.90;999.90;;;22.20;99.90;;;;;;5098485;28;20907;-81
2021/07/15 10:33:33;;;;;;;1999.90;999.90;;;22.30;99.90;;;;;;5098443;28;20393;-81
2021/07/15 10:36:00;;;;;;;1999.90;999.90;;;22.30;99.90;;;;;;5080048;28;20421;-81
2021/07/15 10:38:34;;;;;;;1999.90;999.90;;;22.40;99.90;;;;;;5098790;28;20458;-81
2021/07/15 10:41:00;;;;;;;1999.90;999.90;;;22.50;99.90;;;;;;5098503;28;20435;-81
2021/07/15 10:43:26;;;;;;;1999.90;999.90;;;22.50;99.90;;;;;;5098132;28;20458;-81
2021/07/15 10:45:57;;;;;;;1999.90;999.90;;;22.50;99.90;;;;;;5097850;28;20516;-81
2021/07/15 10:48:25;;;;;;;1999.90;999.90;;;22.50;99.90;;;;;;5098353;28;20445;-80
2021/07/15 10:50:51;;;;;;;1999.90;999.90;;;22.60;99.90;;;;;;5081058;28;20831;-81
2021/07/15 10:53:18;;;;;;;1999.90;999.90;;;22.50;99.90;;;;;;5098433;28;20393;-81
2021/07/15 10:55:45;;;;;;;1999.90;999.90;;;22.60;99.90;;;;;;5099089;28;20839;-81
2021/07/15 10:58:12;;;;;;;1999.90;999.90;;;22.70;99.90;;;;;;5098624;28;20407;-81
2021/07/15 11:00:50;;;;;;;1999.90;999.90;;;22.60;99.90;;;;;;5080027;28;20420;-81
2021/07/15 11:03:22;;;;;;;1999.90;999.90;;;22.60;99.90;;;;;;5081387;28;20472;-81
2021/07/15 11:05:49;;;;;;;1999.90;999.90;;;22.60;99.90;;;;;;5099153;28;20448;-81
2021/07/15 11:08:16;;;;;;;1999.90;999.90;;;22.50;99.90;;;;;;5098735;28;20523;-81
2021/07/15 11:10:43;;;;;;;1999.90;999.90;;;22.50;99.90;;;;;;5099689;28;20905;-81
2021/07/15 11:13:10;;;;;;;1999.90;999.90;;;22.40;99.90;;;;;;5098825;28;20405;-81
2021/07/15 11:15:55;;;;;;;1999.90;999.90;;;22.30;99.90;;;;;;5079916;28;20413;-81
2021/07/15 11:18:45;;;;;;;1999.90;999.90;;;22.30;99.90;;;;;;5098883;28;20394;-80
2021/07/15 11:21:26;;;;;;;1999.90;999.90;;;22.20;99.90;;;;;;5096984;28;20950;-81
2021/07/15 11:24:12;;;;;;;1999.90;999.90;;;22.30;99.90;;;;;;5098814;28;20409;-81
2021/07/15 11:26:41;;;;;;;1999.90;999.90;;;22.40;99.90;;;;;;5079497;28;20799;-81
2021/07/15 11:29:07;;;;;;;1999.90;999.90;;;22.50;99.90;;;;;;5097833;28;20512;-81
2021/07/15 11:31:51;;;;;;;1999.90;999.90;;;22.60;99.90;;;;;;5079419;28;20402;-81
2021/07/15 11:34:43;;;;;;;1999.90;999.90;;;22.70;99.90;;;;;;5097960;28;20874;-81
2021/07/15 11:37:36;;;;;;;1999.90;999.90;;;22.80;99.90;;;;;;5097648;28;20421;-81
2021/07/15 11:40:05;;;;;;;1999.90;999.90;;;22.80;99.90;;;;;;5098026;28;20954;-81
2021/07/15 11:42:36;;;;;;;1999.90;999.90;;;22.80;99.90;;;;;;5097951;28;20393;-82
2021/07/15 11:45:06;;;;;;;1999.90;999.90;;;22.80;99.90;;;;;;5098029;28;20386;-81
2021/07/15 11:47:51;;;;;;;1999.90;999.90;;;22.70;99.90;;;;;;5097307;28;20405;-81
2021/07/15 11:50:38;;;;;;;1999.90;999.90;;;22.70;99.90;;;;;;5097845;28;20374;-81
2021/07/15 11:53:20;;;;;;;1999.90;999.90;;;22.80;99.90;;;;;;5097896;28;20399;-81
2021/07/15 11:55:51;;;;;;;1999.90;999.90;;;22.70;99.90;;;;;;5097866;28;20417;-81
2021/07/15 11:58:38;;;;;;;1999.90;999.90;;;22.80;99.90;;;;;;5079189;28;20463;-81
2021/07/15 12:01:20;;;;;;;1999.90;999.90;;;22.90;99.90;;;;;;5096871;28;20420;-81
2021/07/15 12:04:09;;;;;;;1999.90;999.90;;;22.80;99.90;;;;;;5096813;28;20417;-81
2021/07/15 12:06:45;;;;;;;1999.90;999.90;;;22.90;99.90;;;;;;5097146;28;20424;-81
2021/07/15 12:09:12;;;;;;;1999.90;999.90;;;22.80;99.90;;;;;;5095764;28;20815;-81
2021/07/15 12:11:40;;;;;;;1999.90;999.90;;;22.80;99.90;;;;;;5078665;28;20414;-81